Time;durP1;ratioP1;P1;durP2;ratioP2;P2;SDS_P1;SDS_P2;PMS_P1;PMS_P2;Temp;Humidity;BMP_temperature;BMP_pressure;BME280_temperature;BME280_humidity;BME280_pressure;Samples;Min_cycle;Max_cycle;Signal;HPM_P1;HPM_P2
2021/01/17 00:00:29;;;;;;;;;;;;;;;-4.89;78.44;97872.67;1693562;83;26198;-85
2021/01/17 00:03:17;;;;;;;;;;;;;;;-4.88;78.44;97874.79;1721701;83;20236;-85
2021/01/17 00:06:05;;;;;;;;;;;;;;;-4.86;78.49;97885.39;1720518;83;20279;-85
2021/01/17 00:08:51;;;;;;;;;;;;;;;-4.85;78.50;97883.22;1722389;82;25168;-85
2021/01/17 00:11:37;;;;;;;;;;;;;;;-4.83;78.53;97881.49;1720244;83;22976;-85
2021/01/17 00:14:25;;;;;;;;;;;;;;;-4.84;78.56;97873.42;1718805;83;26202;-84
2021/01/17 00:17:14;;;;;;;;;;;;;;;-4.82;78.58;97877.23;1722868;83;24875;-84
2021/01/17 00:20:00;;;;;;;;;;;;;;;-4.83;78.61;97875.55;1720294;83;20274;-85
2021/01/17 00:22:47;;;;;;;;;;;;;;;-4.81;78.65;97868.28;1727820;81;24400;-84
2021/01/17 00:25:35;;;;;;;;;;;;;;;-4.81;78.67;97869.99;1739510;81;22163;-84
2021/01/17 00:28:21;;;;;;;;;;;;;;;-4.80;78.68;97879.34;1736562;81;26299;-87
2021/01/17 00:31:07;;;;;;;;;;;;;;;-4.80;78.72;97873.77;1741054;81;24665;-87
2021/01/17 00:33:54;;;;;;;;;;;;;;;-4.79;78.74;97877.16;1739580;81;20293;-87
2021/01/17 00:36:40;;;;;;;;;;;;;;;-4.80;78.77;97884.44;1741941;81;25346;-86
2021/01/17 00:39:26;;;;;;;;;;;;;;;-4.78;78.79;97879.70;1738237;81;22102;-86
2021/01/17 00:42:13;;;;;;;;;;;;;;;-4.78;78.79;97869.92;1741736;81;26935;-86
2021/01/17 00:44:59;;;;;;;;;;;;;;;-4.77;78.83;97863.52;1738756;81;24683;-86
2021/01/17 00:47:35;;;;;;;;;;;;;;;-4.79;78.83;97862.70;1738451;81;20337;-90
2021/01/17 00:50:21;;;;;;;;;;;;;;;-4.80;78.88;97873.77;1739156;81;24686;-88
2021/01/17 00:53:10;;;;;;;;;;;;;;;-4.79;78.88;97869.51;1740106;81;22147;-87
2021/01/17 00:55:56;;;;;;;;;;;;;;;-4.76;78.92;97879.25;1736572;81;26274;-87
2021/01/17 00:58:42;;;;;;;;;;;;;;;-4.85;78.92;97860.69;1740224;81;24612;-87
2021/01/17 01:01:27;;;;;;;;;;;;;;;-4.74;78.94;97874.94;1736900;81;20279;-87
2021/01/17 01:04:14;;;;;;;;;;;;;;;-4.69;78.96;97870.59;1738666;81;24552;-87
2021/01/17 01:07:00;;;;;;;;;;;;;;;-4.68;78.99;97868.45;1737534;81;22167;-87
2021/01/17 01:09:46;;;;;;;;;;;;;;;-4.65;78.99;97875.22;1738252;81;26125;-87
2021/01/17 01:12:32;;;;;;;;;;;;;;;-4.61;79.01;97864.08;1738522;81;24716;-87
2021/01/17 01:15:18;;;;;;;;;;;;;;;-4.60;79.07;97861.09;1743798;81;20219;-86
2021/01/17 01:18:04;;;;;;;;;;;;;;;-4.57;79.07;97863.57;1733205;81;24542;-87
2021/01/17 01:20:51;;;;;;;;;;;;;;;-4.55;79.08;97847.80;1741635;81;23291;-86
2021/01/17 01:23:40;;;;;;;;;;;;;;;-4.57;79.11;97843.99;1672023;83;26345;-86
2021/01/17 01:26:29;;;;;;;;;;;;;;;-4.57;79.11;97843.14;1750229;79;25519;-86
2021/01/17 01:29:18;;;;;;;;;;;;;;;-4.57;79.15;97844.42;1771828;79;20765;-87
2021/01/17 01:32:05;;;;;;;;;;;;;;;-4.56;79.17;97841.85;1720527;81;24535;-87
2021/01/17 01:34:52;;;;;;;;;;;;;;;-4.52;79.19;97838.36;1693669;84;22225;-87
2021/01/17 01:37:38;;;;;;;;;;;;;;;-4.51;79.21;97835.38;1708086;83;26325;-87
2021/01/17 01:40:25;;;;;;;;;;;;;;;-4.49;79.22;97834.48;1766665;79;25465;-87
2021/01/17 01:43:13;;;;;;;;;;;;;;;-4.45;79.22;97835.25;1706145;82;20204;-87
2021/01/17 01:45:59;;;;;;;;;;;;;;;-4.43;79.24;97830.97;1755651;80;24545;-88
2021/01/17 01:48:45;;;;;;;;;;;;;;;-4.41;79.26;97824.94;1736859;80;22117;-88
2021/01/17 01:51:32;;;;;;;;;;;;;;;-4.38;79.28;97821.50;1760186;79;26102;-88
2021/01/17 01:54:18;;;;;;;;;;;;;;;-4.36;79.30;97817.18;1753699;80;24560;-87
2021/01/17 01:57:04;;;;;;;;;;;;;;;-4.39;79.32;97805.33;1751207;80;20268;-87
2021/01/17 01:59:50;;;;;;;;;;;;;;;-4.39;79.34;97808.32;1724154;81;24674;-87
2021/01/17 02:02:36;;;;;;;;;;;;;;;-4.42;79.33;97802.83;1728016;82;22230;-87
2021/01/17 02:05:25;;;;;;;;;;;;;;;-4.40;79.35;97810.03;1730316;82;27038;-87
2021/01/17 02:08:12;;;;;;;;;;;;;;;-4.39;79.35;97805.33;1720448;82;24703;-87
2021/01/17 02:11:01;;;;;;;;;;;;;;;-4.37;79.36;97808.70;1722647;83;20389;-87
2021/01/17 02:13:47;;;;;;;;;;;;;;;-4.34;79.38;97806.51;1715777;83;24692;-85
2021/01/17 02:16:36;;;;;;;;;;;;;;;-4.33;79.41;97809.04;1727907;82;22127;-84
2021/01/17 02:19:22;;;;;;;;;;;;;;;-4.30;79.42;97803.01;1720122;82;26139;-84
2021/01/17 02:22:08;;;;;;;;;;;;;;;-4.28;79.42;97800.84;1730751;82;24785;-84
2021/01/17 02:24:54;;;;;;;;;;;;;;;-4.27;79.44;97802.96;1736122;81;20552;-84
2021/01/17 02:27:40;;;;;;;;;;;;;;;-4.25;79.45;97802.47;1738153;81;24657;-84
2021/01/17 02:30:27;;;;;;;;;;;;;;;-4.24;79.47;97810.55;1737736;81;22216;-90
2021/01/17 02:33:13;;;;;;;;;;;;;;;-4.20;79.49;97808.36;1740597;81;27177;-91
2021/01/17 02:36:00;;;;;;;;;;;;;;;-4.18;79.50;97812.97;1742271;81;25824;-89
2021/01/17 02:38:46;;;;;;;;;;;;;;;-4.17;79.52;97807.43;1740329;81;20368;-91
2021/01/17 02:41:32;;;;;;;;;;;;;;;-4.16;79.53;97812.52;1743172;81;24570;-89
2021/01/17 02:44:10;;;;;;;;;;;;;;;-4.14;79.55;97833.73;1741547;81;22829;-90
2021/01/17 02:46:56;;;;;;;;;;;;;;;-4.31;79.58;97841.75;1740039;81;26179;-87
2021/01/17 02:49:42;;;;;;;;;;;;;;;-4.74;79.62;97840.91;1739577;81;24604;-86
2021/01/17 02:52:17;;;;;;;;;;;;;;;-5.12;79.59;97834.80;1741054;81;20419;-86
2021/01/17 02:55:03;;;;;;;;;;;;;;;-5.29;79.52;97838.06;1739985;81;24710;-86
2021/01/17 02:57:52;;;;;;;;;;;;;;;-5.47;79.45;97837.12;1737982;81;22218;-86
2021/01/17 03:00:41;;;;;;;;;;;;;;;-5.61;79.38;97842.41;1741672;81;26102;-86
2021/01/17 03:03:27;;;;;;;;;;;;;;;-5.72;79.30;97848.53;1737681;81;25114;-87
2021/01/17 03:06:14;;;;;;;;;;;;;;;-5.78;79.23;97852.48;1737979;81;20155;-89
2021/01/17 03:09:02;;;;;;;;;;;;;;;-5.85;79.21;97852.98;1738150;81;24716;-88
2021/01/17 03:11:50;;;;;;;;;;;;;;;-5.88;79.19;97857.30;1739542;81;22904;-89
2021/01/17 03:14:36;;;;;;;;;;;;;;;-5.96;79.17;97855.72;1739021;81;26291;-89
2021/01/17 03:17:22;;;;;;;;;;;;;;;-5.98;79.15;97862.96;1739333;81;24634;-89
2021/01/17 03:22:54;;;;;;;;;;;;;;;-6.10;79.14;97866.51;1734773;81;24699;-91
2021/01/17 03:28:16;;;;;;;;;;;;;;;-6.19;79.15;97867.06;1752299;80;26446;-89
2021/01/17 03:31:02;;;;;;;;;;;;;;;-6.24;79.15;97868.83;1714172;82;24565;-90
2021/01/17 03:33:49;;;;;;;;;;;;;;;-6.22;79.16;97878.58;1714987;82;20515;-89
2021/01/17 03:36:35;;;;;;;;;;;;;;;-6.23;79.15;97876.89;1714718;82;25762;-90
2021/01/17 03:42:00;;;;;;;;;;;;;;;-6.26;79.17;97882.00;1720596;82;26278;-91
2021/01/17 03:44:48;;;;;;;;;;;;;;;-6.30;79.19;97886.30;1659404;85;24718;-91
2021/01/17 03:47:36;;;;;;;;;;;;;;;-6.27;79.18;97889.25;1708731;83;20264;-91
2021/01/17 03:50:22;;;;;;;;;;;;;;;-6.23;79.18;97890.89;1708556;82;24899;-89
2021/01/17 03:53:08;;;;;;;;;;;;;;;-6.21;79.18;97900.60;1708496;84;22929;-89
2021/01/17 03:55:54;;;;;;;;;;;;;;;-6.22;79.21;97904.04;1707581;84;26955;-89
2021/01/17 03:58:42;;;;;;;;;;;;;;;-6.27;79.21;97907.88;1708919;84;24607;-89
2021/01/17 04:01:30;;;;;;;;;;;;;;;-6.26;79.22;97910.84;1708265;83;20286;-89
2021/01/17 04:04:16;;;;;;;;;;;;;;;-6.23;79.21;97910.83;1709279;84;24857;-89
2021/01/17 04:07:02;;;;;;;;;;;;;;;-6.26;79.25;97915.09;1708921;84;22178;-89
2021/01/17 04:09:48;;;;;;;;;;;;;;;-6.25;79.23;97909.15;1705907;83;26939;-89
2021/01/17 04:12:39;;;;;;;;;;;;;;;-6.28;79.22;97909.20;1709316;83;25446;-89
2021/01/17 04:15:24;;;;;;;;;;;;;;;-6.37;79.20;97913.52;1707344;84;20459;-89
2021/01/17 04:18:10;;;;;;;;;;;;;;;-6.29;79.16;97914.72;1707539;84;25783;-90
2021/01/17 04:20:59;;;;;;;;;;;;;;;-6.17;79.13;97911.19;1708831;84;22968;-89
2021/01/17 04:23:46;;;;;;;;;;;;;;;-6.12;79.13;97914.52;1710394;81;26280;-88
2021/01/17 04:26:21;;;;;;;;;;;;;;;-6.12;79.10;97914.09;1736507;81;24093;-88
2021/01/17 04:28:58;;;;;;;;;;;;;;;-6.08;79.10;97916.16;1739095;81;20305;-89
2021/01/17 04:31:45;;;;;;;;;;;;;;;-6.13;79.10;97913.67;1776969;79;24699;-89
2021/01/17 04:34:33;;;;;;;;;;;;;;;-6.04;79.09;97919.06;1767804;79;23141;-89
2021/01/17 04:37:19;;;;;;;;;;;;;;;-6.10;79.06;97916.16;1762518;79;26135;-89
2021/01/17 04:40:05;;;;;;;;;;;;;;;-6.18;79.04;97923.07;1772310;79;24687;-88
2021/01/17 04:42:51;;;;;;;;;;;;;;;-6.27;79.03;97922.34;1766688;79;20361;-87
2021/01/17 04:45:37;;;;;;;;;;;;;;;-6.42;78.97;97917.82;1765955;79;24471;-86
2021/01/17 04:48:24;;;;;;;;;;;;;;;-6.52;78.89;97927.70;1772363;79;22201;-87
2021/01/17 04:51:09;;;;;;;;;;;;;;;-6.42;78.81;97931.82;1733455;80;27761;-87
2021/01/17 04:53:56;;;;;;;;;;;;;;;-6.32;78.78;97937.64;1733939;81;26424;-87
2021/01/17 04:56:42;;;;;;;;;;;;;;;-6.30;78.74;97942.73;1712262;82;20476;-86
2021/01/17 04:59:28;;;;;;;;;;;;;;;-6.26;78.71;97941.40;1737264;80;24867;-86
2021/01/17 05:02:15;;;;;;;;;;;;;;;-6.32;78.68;97949.10;1756532;79;22177;-86
2021/01/17 05:05:04;;;;;;;;;;;;;;;-6.36;78.64;97950.84;1761745;79;27083;-87
2021/01/17 05:07:50;;;;;;;;;;;;;;;-6.48;78.59;97950.97;1763001;79;24573;-87
2021/01/17 05:10:37;;;;;;;;;;;;;;;-6.63;78.51;97962.58;1771943;79;20286;-87
2021/01/17 05:13:23;;;;;;;;;;;;;;;-6.54;78.43;97961.63;1771590;79;25544;-87
2021/01/17 05:16:09;;;;;;;;;;;;;;;-6.55;78.34;97967.61;1765563;79;22917;-87
2021/01/17 05:18:55;;;;;;;;;;;;;;;-6.59;78.26;97955.75;1774501;79;26223;-87
2021/01/17 05:21:42;;;;;;;;;;;;;;;-6.41;78.24;97953.88;1764493;79;24605;-87
2021/01/17 05:24:29;;;;;;;;;;;;;;;-6.47;78.20;97975.99;1768802;79;20318;-87
2021/01/17 05:27:17;;;;;;;;;;;;;;;-6.39;78.17;97961.08;1775133;79;24697;-87
2021/01/17 05:30:03;;;;;;;;;;;;;;;-6.45;78.13;97971.31;1768641;79;23006;-85
2021/01/17 05:32:49;;;;;;;;;;;;;;;-6.68;78.09;97981.30;1748813;81;26289;-84
2021/01/17 05:35:35;;;;;;;;;;;;;;;-6.85;78.01;97980.17;1732359;81;24685;-84
2021/01/17 05:38:21;;;;;;;;;;;;;;;-7.01;77.92;97983.27;1682849;82;20274;-84
2021/01/17 05:41:07;;;;;;;;;;;;;;;-7.13;77.83;97986.31;1686241;82;24837;-84
2021/01/17 05:43:41;;;;;;;;;;;;;;;-7.30;77.73;97991.09;1706685;82;22995;-88
2021/01/17 05:46:29;;;;;;;;;;;;;;;-7.44;77.63;97995.43;1682669;82;26223;-84
2021/01/17 05:49:15;;;;;;;;;;;;;;;-7.67;77.54;98003.59;1726229;82;24551;-90
2021/01/17 05:52:05;;;;;;;;;;;;;;;-7.89;77.41;98003.27;1760855;79;20357;-90
2021/01/17 05:54:51;;;;;;;;;;;;;;;-8.07;77.28;98002.91;1773050;79;24844;-90
2021/01/17 05:57:41;;;;;;;;;;;;;;;-8.21;77.15;98007.20;1742393;81;22114;-90
2021/01/17 06:00:28;;;;;;;;;;;;;;;-8.31;77.02;98005.56;1708016;82;26182;-89
2021/01/17 06:03:14;;;;;;;;;;;;;;;-8.41;76.92;98005.17;1727084;82;24840;-87
2021/01/17 06:06:00;;;;;;;;;;;;;;;-8.50;76.81;98008.12;1729655;82;20275;-87
2021/01/17 06:08:46;;;;;;;;;;;;;;;-8.58;76.72;98015.34;1731836;82;24765;-86
2021/01/17 06:11:32;;;;;;;;;;;;;;;-8.65;76.65;98019.57;1717775;82;22127;-86
2021/01/17 06:14:18;;;;;;;;;;;;;;;-8.68;76.56;98015.78;1728140;82;27172;-87
2021/01/17 06:17:04;;;;;;;;;;;;;;;-8.65;76.52;98028.45;1720146;82;24929;-87
2021/01/17 06:19:54;;;;;;;;;;;;;;;-8.64;76.48;98034.37;1723196;82;20187;-90
2021/01/17 06:22:40;;;;;;;;;;;;;;;-8.59;76.47;98044.93;1728402;82;24862;-89
2021/01/17 06:25:30;;;;;;;;;;;;;;;-8.51;76.45;98040.67;1727605;82;23027;-89
2021/01/17 06:28:16;;;;;;;;;;;;;;;-8.30;76.45;98051.25;1733295;81;26207;-91
2021/01/17 06:30:58;;;;;;;;;;;;;;;-8.16;76.45;98047.36;1732479;82;24666;-91
2021/01/17 06:33:44;;;;;;;;;;;;;;;-8.02;76.49;98057.89;1728034;82;20259;-91
2021/01/17 06:36:32;;;;;;;;;;;;;;;-7.94;76.50;98059.57;1727743;81;25472;-89
2021/01/17 06:39:20;;;;;;;;;;;;;;;-7.91;76.55;98064.66;1733650;82;22152;-89
2021/01/17 06:42:06;;;;;;;;;;;;;;;-7.71;76.56;98064.16;1736190;81;26076;-88
2021/01/17 06:44:52;;;;;;;;;;;;;;;-7.78;76.58;98075.17;1734845;81;24788;-84
2021/01/17 06:47:38;;;;;;;;;;;;;;;-7.97;76.56;98073.14;1738083;81;20466;-89
2021/01/17 06:50:25;;;;;;;;;;;;;;;-8.11;76.53;98078.23;1741440;81;24656;-88
2021/01/17 06:53:11;;;;;;;;;;;;;;;-8.17;76.47;98083.31;1735580;81;22142;-88
2021/01/17 06:55:56;;;;;;;;;;;;;;;-8.14;76.43;98082.48;1740764;81;26340;-88
2021/01/17 06:58:46;;;;;;;;;;;;;;;-7.95;76.39;98082.00;1736739;81;25552;-88
2021/01/17 07:01:32;;;;;;;;;;;;;;;-7.79;76.37;98083.64;1731341;81;20681;-84
2021/01/17 07:04:18;;;;;;;;;;;;;;;-7.60;76.37;98085.28;1732434;81;24750;-88
2021/01/17 07:07:04;;;;;;;;;;;;;;;-7.40;76.36;98083.49;1738367;81;22518;-88
2021/01/17 07:09:52;;;;;;;;;;;;;;;-7.11;76.41;98090.98;1737252;81;26223;-84
2021/01/17 07:12:38;;;;;;;;;;;;;;;-7.22;76.41;98089.77;1739608;81;24180;-88
2021/01/17 07:15:12;;;;;;;;;;;;;;;-7.36;76.40;98105.48;1737045;81;20496;-89
2021/01/17 07:18:00;;;;;;;;;;;;;;;-7.49;76.38;98106.41;1733306;81;24855;-89
2021/01/17 07:20:46;;;;;;;;;;;;;;;-7.44;76.34;98108.93;1736462;81;22244;-85
2021/01/17 07:23:32;;;;;;;;;;;;;;;-7.16;76.30;98120.66;1741355;81;26125;-88
2021/01/17 07:26:18;;;;;;;;;;;;;;;-7.14;76.26;98122.75;1736664;81;25538;-88
2021/01/17 07:29:05;;;;;;;;;;;;;;;-7.17;76.26;98126.59;1739799;81;20536;-88
2021/01/17 07:31:54;;;;;;;;;;;;;;;-7.25;76.22;98131.70;1741039;81;25640;-87
2021/01/17 07:34:44;;;;;;;;;;;;;;;-7.47;76.19;98142.80;1728316;81;22211;-85
2021/01/17 07:37:30;;;;;;;;;;;;;;;-7.53;76.12;98139.04;1731456;82;26323;-84
2021/01/17 07:40:49;;;;;;;;;;;;;;;-7.41;76.06;98145.75;1739802;81;24977;-84
2021/01/17 07:43:14;;;;;;;;;;;;;;;-7.22;76.01;98152.47;1725132;82;20267;-87
2021/01/17 07:46:01;;;;;;;;;;;;;;;-7.17;75.96;98148.63;1705246;82;24639;-84
2021/01/17 07:48:47;;;;;;;;;;;;;;;-7.11;75.95;98155.81;1737346;81;22300;-88
2021/01/17 07:51:34;;;;;;;;;;;;;;;-7.04;75.95;98152.81;1735546;82;26414;-84
2021/01/17 07:54:19;;;;;;;;;;;;;;;-6.77;75.92;98152.67;1736185;81;25476;-87
2021/01/17 07:57:05;;;;;;;;;;;;;;;-6.52;75.91;98158.00;1731213;81;20267;-89
2021/01/17 07:59:55;;;;;;;;;;;;;;;-6.45;75.90;98158.81;1735187;81;20487;-85
2021/01/17 08:02:41;;;;;;;;;;;;;;;-6.39;75.89;98159.62;1739792;81;22152;-89
2021/01/17 08:05:28;;;;;;;;;;;;;;;-6.33;75.88;98160.43;1729121;82;26306;-87
2021/01/17 08:08:14;;;;;;;;;;;;;;;-6.32;75.87;98165.48;1736369;82;24699;-84
2021/01/17 08:11:03;;;;;;;;;;;;;;;-6.49;75.82;98161.78;1740195;82;20320;-89
2021/01/17 08:13:50;;;;;;;;;;;;;;;-6.52;75.80;98168.61;1737341;82;25414;-89
2021/01/17 08:19:19;;;;;;;;;;;;;;;-6.56;75.69;98177.97;1734322;81;26133;-88
2021/01/17 08:22:05;;;;;;;;;;;;;;;-6.65;75.64;98184.37;1734887;81;24788;-84
2021/01/17 08:24:52;;;;;;;;;;;;;;;-6.63;75.57;98184.37;1737752;82;20645;-88
2021/01/17 08:27:39;;;;;;;;;;;;;;;-6.62;75.49;98185.64;1684092;84;24671;-88
2021/01/17 08:30:28;;;;;;;;;;;;;;;-6.61;75.45;98186.48;1698430;84;20210;-86
2021/01/17 08:33:15;;;;;;;;;;;;;;;-6.53;75.41;98189.39;1696109;83;26943;-88
2021/01/17 08:36:02;;;;;;;;;;;;;;;-6.37;75.35;98192.25;1664976;85;25658;-88
2021/01/17 08:38:48;;;;;;;;;;;;;;;-6.12;75.33;98195.91;1686052;83;20957;-89
2021/01/17 08:41:29;;;;;;;;;;;;;;;-6.10;75.33;98201.81;1700563;83;24758;-91
2021/01/17 08:44:19;;;;;;;;;;;;;;;-6.15;75.31;98203.55;1696013;83;22530;-90
2021/01/17 08:47:05;;;;;;;;;;;;;;;-6.18;75.26;98208.25;1672873;82;26235;-84
2021/01/17 08:49:52;;;;;;;;;;;;;;;-6.14;75.23;98207.80;1708543;82;25306;-89
2021/01/17 08:52:38;;;;;;;;;;;;;;;-6.18;75.19;98210.80;1689241;83;20560;-89
2021/01/17 08:55:28;;;;;;;;;;;;;;;-6.15;75.14;98211.19;1733714;80;24810;-89
2021/01/17 08:58:13;;;;;;;;;;;;;;;-6.03;75.09;98220.87;1735525;80;22198;-84
2021/01/17 09:00:59;;;;;;;;;;;;;;;-6.03;75.05;98219.59;1735436;80;26123;-84
2021/01/17 09:03:46;;;;;;;;;;;;;;;-6.00;75.00;98231.02;1693354;84;24696;-84
2021/01/17 09:06:33;;;;;;;;;;;;;;;-5.91;74.95;98228.84;1693363;84;20802;-84
2021/01/17 09:09:19;;;;;;;;;;;;;;;-5.83;74.90;98241.05;1696944;84;24712;-86
2021/01/17 09:12:05;;;;;;;;;;;;;;;-5.79;74.84;98243.16;1695912;82;22107;-87
2021/01/17 09:14:51;;;;;;;;;;;;;;;-5.78;74.80;98239.76;1695879;84;25353;-88
2021/01/17 09:17:39;;;;;;;;;;;;;;;-5.85;74.76;98240.23;1698105;84;24675;-88
2021/01/17 09:20:25;;;;;;;;;;;;;;;-5.81;74.71;98247.41;1676280;82;20341;-88
2021/01/17 09:23:13;;;;;;;;;;;;;;;-5.78;74.65;98255.05;1695738;83;24841;-93
2021/01/17 09:25:59;;;;;;;;;;;;;;;-5.80;74.61;98258.03;1702807;82;22274;-89
2021/01/17 09:28:45;;;;;;;;;;;;;;;-5.84;74.56;98255.09;1733260;82;27051;-88
2021/01/17 09:31:31;;;;;;;;;;;;;;;-5.81;74.50;98260.15;1735533;82;24627;-88
2021/01/17 09:34:17;;;;;;;;;;;;;;;-5.82;74.46;98262.27;1739600;82;20362;-89
2021/01/17 09:37:03;;;;;;;;;;;;;;;-5.79;74.39;98268.64;1734111;82;24687;-89
2021/01/17 09:39:49;;;;;;;;;;;;;;;-5.76;74.35;98273.70;1734178;82;22399;-88
2021/01/17 09:42:36;;;;;;;;;;;;;;;-5.72;74.28;98276.20;1736856;82;26991;-88
2021/01/17 09:45:22;;;;;;;;;;;;;;;-5.67;74.21;98282.11;1737283;81;24623;-87
2021/01/17 09:48:10;;;;;;;;;;;;;;;-5.65;74.19;98283.38;1734230;81;20303;-88
2021/01/17 09:50:56;;;;;;;;;;;;;;;-5.70;74.16;98276.20;1733628;81;24747;-88
2021/01/17 09:53:42;;;;;;;;;;;;;;;-5.69;74.11;98272.80;1734340;81;22078;-88
2021/01/17 09:56:28;;;;;;;;;;;;;;;-5.73;74.05;98283.45;1739404;82;26111;-88
2021/01/17 09:59:14;;;;;;;;;;;;;;;-5.77;74.00;98283.05;1736977;82;24781;-88
2021/01/17 10:02:02;;;;;;;;;;;;;;;-5.81;73.95;98277.56;1735637;82;20298;-88
2021/01/17 10:04:48;;;;;;;;;;;;;;;-5.84;73.89;98278.87;1734996;82;24677;-87
2021/01/17 10:07:36;;;;;;;;;;;;;;;-5.73;73.83;98282.19;1740153;82;22140;-88
2021/01/17 10:10:22;;;;;;;;;;;;;;;-5.51;73.80;98279.84;1735048;82;26934;-84
2021/01/17 10:12:57;;;;;;;;;;;;;;;-5.54;73.76;98283.70;1739601;82;24643;-84
2021/01/17 10:15:43;;;;;;;;;;;;;;;-5.58;73.72;98285.87;1662107;85;20523;-88
2021/01/17 10:18:29;;;;;;;;;;;;;;;-5.52;73.66;98290.08;1666838;85;24690;-87
2021/01/17 10:21:15;;;;;;;;;;;;;;;-5.53;73.64;98289.23;1682905;84;22191;-87
2021/01/17 10:24:02;;;;;;;;;;;;;;;-5.54;73.61;98290.08;1678703;83;25859;-88
2021/01/17 10:26:50;;;;;;;;;;;;;;;-5.52;73.55;98288.38;1689767;82;25472;-87
2021/01/17 10:29:37;;;;;;;;;;;;;;;-5.54;73.49;98289.23;1711471;82;20509;-87
2021/01/17 10:32:25;;;;;;;;;;;;;;;-5.52;73.45;98292.20;1699018;81;24707;-87
2021/01/17 10:35:11;;;;;;;;;;;;;;;-5.51;73.40;98287.49;1719175;81;22965;-87
2021/01/17 10:37:57;;;;;;;;;;;;;;;-5.44;73.35;98293.39;1698060;81;26182;-88
2021/01/17 10:40:43;;;;;;;;;;;;;;;-5.24;73.28;98297.91;1712653;83;25406;-88
2021/01/17 10:43:29;;;;;;;;;;;;;;;-5.07;73.26;98292.60;1741004;81;20219;-88
2021/01/17 10:46:15;;;;;;;;;;;;;;;-5.16;73.22;98297.80;1732338;81;24767;-90
2021/01/17 10:49:02;;;;;;;;;;;;;;;-5.36;73.17;98302.26;1735379;82;22393;-86
2021/01/17 10:51:48;;;;;;;;;;;;;;;-5.44;73.09;98295.09;1726934;81;26158;-88
2021/01/17 10:54:34;;;;;;;;;;;;;;;-5.28;73.03;98306.42;1738418;81;24632;-88
2021/01/17 10:57:21;;;;;;;;;;;;;;;-5.25;72.98;98309.38;1725968;81;20711;-89
2021/01/17 11:00:07;;;;;;;;;;;;;;;-5.26;72.91;98304.70;1724149;82;24687;-89
2021/01/17 11:02:55;;;;;;;;;;;;;;;-5.14;72.88;98304.59;1722819;82;22307;-89
2021/01/17 11:05:42;;;;;;;;;;;;;;;-5.03;72.85;98296.84;1712387;82;25965;-85
2021/01/17 11:08:29;;;;;;;;;;;;;;;-5.11;72.81;98294.35;1737149;81;24671;-89
2021/01/17 11:11:15;;;;;;;;;;;;;;;-5.03;72.76;98293.01;1732407;81;20338;-87
2021/01/17 11:14:03;;;;;;;;;;;;;;;-5.10;72.70;98294.77;1734440;81;20392;-87
2021/01/17 11:16:49;;;;;;;;;;;;;;;-5.14;72.63;98293.55;1735713;81;22340;-87
2021/01/17 11:19:35;;;;;;;;;;;;;;;-5.13;72.56;98296.52;1739474;81;26121;-88
2021/01/17 11:22:23;;;;;;;;;;;;;;;-5.20;72.49;98304.66;1711259;81;24416;-88
2021/01/17 11:25:09;;;;;;;;;;;;;;;-5.25;72.42;98304.28;1740871;81;20413;-88
2021/01/17 11:27:58;;;;;;;;;;;;;;;-5.26;72.35;98305.98;1734198;81;25464;-89
2021/01/17 11:30:44;;;;;;;;;;;;;;;-5.15;72.28;98302.05;1735692;81;22197;-88
2021/01/17 11:33:30;;;;;;;;;;;;;;;-5.20;72.21;98297.43;1732491;81;26353;-88
2021/01/17 11:39:41;;;;;;;;;;;;;;;-5.25;72.02;98301.30;1719791;81;20194;-88
2021/01/17 11:42:29;;;;;;;;;;;;;;;-5.35;71.88;98295.88;1768446;79;25868;-88
2021/01/17 11:45:29;;;;;;;;;;;;;;;-5.34;71.77;98304.34;1771119;79;22145;-89
2021/01/17 11:48:16;;;;;;;;;;;;;;;-5.35;71.67;98302.25;1759403;79;26903;-88
2021/01/17 11:51:03;;;;;;;;;;;;;;;-5.39;71.58;98299.29;1767997;79;24765;-88
2021/01/17 11:53:49;;;;;;;;;;;;;;;-5.46;71.48;98304.48;1739212;80;20288;-88
2021/01/17 11:56:39;;;;;;;;;;;;;;;-5.47;71.39;98309.16;1745068;81;25509;-88
2021/01/17 11:59:26;;;;;;;;;;;;;;;-5.49;71.33;98306.18;1744868;80;23036;-88
2021/01/17 12:02:00;;;;;;;;;;;;;;;-5.52;71.26;98306.22;1733800;81;27077;-88
2021/01/17 12:04:46;;;;;;;;;;;;;;;-5.53;71.20;98303.25;1733387;81;24674;-88
2021/01/17 12:07:33;;;;;;;;;;;;;;;-5.51;71.15;98305.80;1727294;81;20468;-88
2021/01/17 12:10:20;;;;;;;;;;;;;;;-5.44;71.09;98305.29;1724848;82;25619;-88
2021/01/17 12:13:06;;;;;;;;;;;;;;;-5.38;71.06;98307.36;1729276;81;22387;-89
2021/01/17 12:15:52;;;;;;;;;;;;;;;-5.40;71.03;98307.80;1767820;79;27034;-88
2021/01/17 12:18:39;;;;;;;;;;;;;;;-5.33;70.98;98310.72;1772816;79;24783;-89
2021/01/17 12:21:26;;;;;;;;;;;;;;;-5.34;70.95;98313.27;1772589;79;20436;-88
2021/01/17 12:24:12;;;;;;;;;;;;;;;-5.37;70.93;98306.94;1735822;81;24710;-89
2021/01/17 12:26:58;;;;;;;;;;;;;;;-5.26;70.87;98310.23;1734814;81;21516;-88
2021/01/17 12:29:46;;;;;;;;;;;;;;;-5.26;70.83;98308.53;1739238;81;26130;-88
2021/01/17 12:32:32;;;;;;;;;;;;;;;-5.26;70.78;98312.36;1733084;82;24669;-85
2021/01/17 12:35:18;;;;;;;;;;;;;;;-5.25;70.74;98308.95;1732988;81;20375;-85
2021/01/17 12:38:04;;;;;;;;;;;;;;;-5.23;70.70;98312.31;1729692;82;24697;-86
2021/01/17 12:40:37;;;;;;;;;;;;;;;-5.16;70.66;98318.22;1739258;81;22113;-87
2021/01/17 12:43:12;;;;;;;;;;;;;;;-5.14;70.62;98304.59;1736585;81;26425;-87
2021/01/17 12:46:00;;;;;;;;;;;;;;;-5.12;70.58;98315.61;1736642;81;25453;-87
2021/01/17 12:48:46;;;;;;;;;;;;;;;-5.06;70.55;98313.00;1737208;81;20307;-87
2021/01/17 12:51:33;;;;;;;;;;;;;;;-5.08;70.51;98313.90;1741593;81;24694;-88
2021/01/17 12:54:21;;;;;;;;;;;;;;;-5.01;70.46;98317.20;1738977;81;22197;-87
2021/01/17 12:57:07;;;;;;;;;;;;;;;-5.02;70.41;98316.39;1731465;82;26291;-87
2021/01/17 12:59:53;;;;;;;;;;;;;;;-5.12;70.36;98318.16;1728276;81;24600;-88
2021/01/17 13:02:43;;;;;;;;;;;;;;;-5.20;70.27;98323.78;1739844;81;20393;-88
2021/01/17 13:05:29;;;;;;;;;;;;;;;-5.19;70.17;98322.08;1746459;79;24960;-88
2021/01/17 13:08:15;;;;;;;;;;;;;;;-5.13;70.09;98320.75;1771107;79;22247;-89
2021/01/17 13:11:01;;;;;;;;;;;;;;;-5.22;70.01;98323.37;1770007;79;26178;-88
2021/01/17 13:13:48;;;;;;;;;;;;;;;-5.26;69.97;98325.11;1759895;79;25037;-88
2021/01/17 13:16:34;;;;;;;;;;;;;;;-5.25;69.89;98329.78;1772088;79;20335;-88
2021/01/17 13:19:21;;;;;;;;;;;;;;;-5.28;69.83;98333.62;1729123;81;25678;-88
2021/01/17 13:22:07;;;;;;;;;;;;;;;-5.24;69.78;98337.44;1738990;81;22989;-88
2021/01/17 13:24:53;;;;;;;;;;;;;;;-5.17;69.73;98339.47;1757786;79;26112;-87
2021/01/17 13:27:40;;;;;;;;;;;;;;;-5.17;69.67;98336.49;1765596;79;24612;-88
2021/01/17 13:30:26;;;;;;;;;;;;;;;-5.25;69.63;98343.81;1771511;79;20389;-88
2021/01/17 13:33:16;;;;;;;;;;;;;;;-5.29;69.58;98344.70;1779364;79;25694;-87
2021/01/17 13:36:03;;;;;;;;;;;;;;;-5.30;69.54;98346.83;1728445;80;22215;-88
2021/01/17 13:38:49;;;;;;;;;;;;;;;-5.34;69.49;98344.72;1737510;81;26369;-88
2021/01/17 13:41:36;;;;;;;;;;;;;;;-5.36;69.44;98349.43;1738610;81;24704;-88
2021/01/17 13:44:23;;;;;;;;;;;;;;;-5.40;69.38;98362.61;1756070;79;20388;-88
2021/01/17 13:47:13;;;;;;;;;;;;;;;-5.41;69.35;98364.77;1736596;79;24466;-88
2021/01/17 13:50:00;;;;;;;;;;;;;;;-5.43;69.30;98372.00;1722463;80;22093;-89
2021/01/17 13:52:46;;;;;;;;;;;;;;;-5.44;69.25;98379.22;1732816;80;26122;-89
2021/01/17 13:55:32;;;;;;;;;;;;;;;-5.45;69.23;98383.94;1738539;81;24605;-89
2021/01/17 13:58:18;;;;;;;;;;;;;;;-5.46;69.18;98388.19;1731805;81;20663;-86
2021/01/17 14:01:04;;;;;;;;;;;;;;;-5.47;69.15;98394.13;1768795;79;24768;-87
2021/01/17 14:03:50;;;;;;;;;;;;;;;-5.45;69.10;98399.23;1767660;79;22141;-86
2021/01/17 14:06:37;;;;;;;;;;;;;;;-5.45;69.08;98392.86;1737536;80;26298;-86
2021/01/17 14:09:23;;;;;;;;;;;;;;;-5.50;69.06;98400.08;1731353;82;26179;-86
2021/01/17 14:12:09;;;;;;;;;;;;;;;-5.53;69.00;98403.94;1721606;81;20295;-87
2021/01/17 14:14:57;;;;;;;;;;;;;;;-5.56;68.97;98405.22;1738165;81;24907;-86
2021/01/17 14:17:45;;;;;;;;;;;;;;;-5.60;68.94;98405.25;1735958;81;22867;-87
2021/01/17 14:20:32;;;;;;;;;;;;;;;-5.61;68.88;98411.20;1733359;81;26088;-87
2021/01/17 14:23:18;;;;;;;;;;;;;;;-5.63;68.86;98404.86;1779357;79;25694;-87
2021/01/17 14:26:04;;;;;;;;;;;;;;;-5.59;68.83;98406.95;1767794;79;20186;-84
2021/01/17 14:28:51;;;;;;;;;;;;;;;-5.62;68.80;98412.09;1758618;79;25656;-87
2021/01/17 14:31:37;;;;;;;;;;;;;;;-5.58;68.77;98412.05;1737938;82;22107;-86
2021/01/17 14:34:24;;;;;;;;;;;;;;;-5.59;68.72;98416.73;1734572;81;26256;-86
2021/01/17 14:37:11;;;;;;;;;;;;;;;-5.64;68.69;98419.73;1737050;81;24684;-88
2021/01/17 14:39:57;;;;;;;;;;;;;;;-5.61;68.65;98415.87;1737547;81;20303;-88